Terminal Aerodrome Forecast
Issued by NWS

Home | Current Version | Previous Version | Text Only | Print | Product List | Glossary On
Versions: 1 2 3 4 5 6 7 8 9 10 11 12 13 14 15 16 17 18 19 20 21
000
FTUS41 KILN 020500
TAFLUK
TAF
KLUK 020540Z 0206/0306 00000KT P6SM SCT070 BKN250
      TEMPO 0206/0207 5SM BR
     FM020700 00000KT 4SM BR SCT060 BKN100
      TEMPO 0209/0212 1SM BR
     FM021300 02003KT P6SM VCSH SCT070 BKN250
     FM021700 02005KT P6SM -SHRA VCTS BKN040CB
     FM022100 02005KT P6SM VCSH BKN050
     FM030000 00000KT P6SM SCT050
     FM030400 00000KT P6SM SKC=

USA.gov is the U.S. government's official web portal to all federal, state and local government web resources and services.